Terminal Aerodrome Forecast
Issued by NWS Jacksonville, FL

Home | Current Version | Previous Version | Text Only | Print | Product List | Glossary On
Versions: 1 2 3 4 5 6 7 8 9 10 11 12 13 14 15 16 17
000
FTUS42 KJAX 301722
TAFSSI
TAF
KSSI 301722Z 3018/3118 13006KT P6SM SCT035
     FM301900 15008KT P6SM VCTS BKN040CB
     FM310200 VRB03KT P6SM SKC
     FM311300 VRB04KT P6SM VCSH BKN025=

USA.gov is the U.S. government's official web portal to all federal, state and local government web resources and services.